Cambiasca, Brazil
Current Conditions -  °F | °C
As of 11:00 PM on Friday 28 Nov 2014 (Local Time) from SBCP Reporting Station
Overcast Overcast  
Wind Chill: 75°   Ceiling: 9000
Heat Index: 75°   Visibility: 6mi
Dew Point: 72°   Wind: 9mph
Humidity: 89%   Direction: 240°WSW
Pressure: 30.03"   Gusts: NA
Location:  21.71°S, 41.92°W
Report Text: SBCP 290100Z 24008KT 9999 SCT010 OVC090 24/22 Q1017
Loading
Personal Weather Stations






























Interactive Weather Map New forecast layout! Learn more

10-Day Weather Forecast

Advertisements
Track Severe Weather on mobile